sensor_id;sensor_type;location;lat;lon;timestamp;pressure;altitude;pressure_sealevel;temperature
19644;BMP180;9970;-36.854;174.870;2023-03-23T00:00:00;101741.00;;;19.70
19644;BMP180;9970;-36.854;174.870;2023-03-23T00:02:32;101743.00;;;19.70
19644;BMP180;9970;-36.854;174.870;2023-03-23T00:05:07;101738.00;;;19.70
19644;BMP180;9970;-36.854;174.870;2023-03-23T00:07:38;101736.00;;;19.70
19644;BMP180;9970;-36.854;174.870;2023-03-23T00:10:10;101744.00;;;19.70
19644;BMP180;9970;-36.854;174.870;2023-03-23T00:12:40;101732.00;;;19.60
19644;BMP180;9970;-36.854;174.870;2023-03-23T00:15:12;101735.00;;;19.60
19644;BMP180;9970;-36.854;174.870;2023-03-23T00:17:44;101725.00;;;19.60
19644;BMP180;9970;-36.854;174.870;2023-03-23T00:20:15;101735.00;;;19.60
19644;BMP180;9970;-36.854;174.870;2023-03-23T00:22:45;101721.00;;;19.60
19644;BMP180;9970;-36.854;174.870;2023-03-23T00:28:36;101734.00;;;19.80
19644;BMP180;9970;-36.854;174.870;2023-03-23T00:31:11;101728.00;;;19.90
19644;BMP180;9970;-36.854;174.870;2023-03-23T00:37:34;101734.00;;;19.80
19644;BMP180;9970;-36.854;174.870;2023-03-23T00:40:11;101733.00;;;19.80
19644;BMP180;9970;-36.854;174.870;2023-03-23T00:42:45;101728.00;;;19.80
19644;BMP180;9970;-36.854;174.870;2023-03-23T00:45:17;101734.00;;;19.80
19644;BMP180;9970;-36.854;174.870;2023-03-23T00:47:47;101729.00;;;19.80
19644;BMP180;9970;-36.854;174.870;2023-03-23T00:50:19;101735.00;;;19.80
19644;BMP180;9970;-36.854;174.870;2023-03-23T00:52:49;101735.00;;;19.80
19644;BMP180;9970;-36.854;174.870;2023-03-23T00:55:21;101730.00;;;19.80
19644;BMP180;9970;-36.854;174.870;2023-03-23T00:57:52;101729.00;;;19.80
19644;BMP180;9970;-36.854;174.870;2023-03-23T01:00:23;101739.00;;;19.80
19644;BMP180;9970;-36.854;174.870;2023-03-23T01:02:54;101732.00;;;19.80
19644;BMP180;9970;-36.854;174.870;2023-03-23T01:05:24;101726.00;;;19.80
19644;BMP180;9970;-36.854;174.870;2023-03-23T01:07:56;101718.00;;;19.80
19644;BMP180;9970;-36.854;174.870;2023-03-23T01:10:26;101718.00;;;19.80
19644;BMP180;9970;-36.854;174.870;2023-03-23T01:12:57;101723.00;;;19.80
19644;BMP180;9970;-36.854;174.870;2023-03-23T01:15:29;101715.00;;;19.80
19644;BMP180;9970;-36.854;174.870;2023-03-23T01:18:00;101711.00;;;19.80
19644;BMP180;9970;-36.854;174.870;2023-03-23T01:20:30;101704.00;;;19.80
19644;BMP180;9970;-36.854;174.870;2023-03-23T01:23:01;101709.00;;;19.80
19644;BMP180;9970;-36.854;174.870;2023-03-23T01:25:34;101707.00;;;19.80
19644;BMP180;9970;-36.854;174.870;2023-03-23T01:28:08;101710.00;;;19.80
19644;BMP180;9970;-36.854;174.870;2023-03-23T01:30:38;101712.00;;;19.80
19644;BMP180;9970;-36.854;174.870;2023-03-23T01:33:09;101709.00;;;19.80
19644;BMP180;9970;-36.854;174.870;2023-03-23T01:38:58;101705.00;;;19.70
19644;BMP180;9970;-36.854;174.870;2023-03-23T01:41:33;101701.00;;;19.70
19644;BMP180;9970;-36.854;174.870;2023-03-23T01:47:03;101702.00;;;19.70
19644;BMP180;9970;-36.854;174.870;2023-03-23T01:49:38;101701.00;;;19.60
19644;BMP180;9970;-36.854;174.870;2023-03-23T01:52:25;101700.00;;;19.60
19644;BMP180;9970;-36.854;174.870;2023-03-23T01:54:59;101695.00;;;19.60
19644;BMP180;9970;-36.854;174.870;2023-03-23T01:57:29;101686.00;;;19.60
19644;BMP180;9970;-36.854;174.870;2023-03-23T02:00:03;101684.00;;;19.60
19644;BMP180;9970;-36.854;174.870;2023-03-23T02:02:44;101684.00;;;19.60
19644;BMP180;9970;-36.854;174.870;2023-03-23T02:05:23;101693.00;;;19.50
19644;BMP180;9970;-36.854;174.870;2023-03-23T02:07:50;101689.00;;;19.50
19644;BMP180;9970;-36.854;174.870;2023-03-23T02:10:59;101685.00;;;19.50
19644;BMP180;9970;-36.854;174.870;2023-03-23T02:13:33;101689.00;;;19.50
19644;BMP180;9970;-36.854;174.870;2023-03-23T02:16:21;101688.00;;;19.50
19644;BMP180;9970;-36.854;174.870;2023-03-23T02:25:56;101670.00;;;19.50
19644;BMP180;9970;-36.854;174.870;2023-03-23T02:40:23;101662.00;;;19.50
19644;BMP180;9970;-36.854;174.870;2023-03-23T02:46:11;101662.00;;;19.50
19644;BMP180;9970;-36.854;174.870;2023-03-23T02:52:02;101667.00;;;19.60
19644;BMP180;9970;-36.854;174.870;2023-03-23T02:58:31;101667.00;;;19.60
19644;BMP180;9970;-36.854;174.870;2023-03-23T03:04:41;101674.00;;;19.50
19644;BMP180;9970;-36.854;174.870;2023-03-23T03:20:08;101666.00;;;19.50
19644;BMP180;9970;-36.854;174.870;2023-03-23T03:22:27;101665.00;;;19.50
19644;BMP180;9970;-36.854;174.870;2023-03-23T03:28:27;101667.00;;;19.50
19644;BMP180;9970;-36.854;174.870;2023-03-23T03:31:33;101666.00;;;19.50
19644;BMP180;9970;-36.854;174.870;2023-03-23T03:34:27;101664.00;;;19.40
19644;BMP180;9970;-36.854;174.870;2023-03-23T03:37:18;101676.00;;;19.40
19644;BMP180;9970;-36.854;174.870;2023-03-23T03:40:02;101673.00;;;19.40
19644;BMP180;9970;-36.854;174.870;2023-03-23T03:45:22;101673.00;;;19.40
19644;BMP180;9970;-36.854;174.870;2023-03-23T03:47:53;101669.00;;;19.40
19644;BMP180;9970;-36.854;174.870;2023-03-23T03:51:06;101670.00;;;19.30
19644;BMP180;9970;-36.854;174.870;2023-03-23T03:56:43;101663.00;;;19.30
19644;BMP180;9970;-36.854;174.870;2023-03-23T04:02:26;101675.00;;;19.30
19644;BMP180;9970;-36.854;174.870;2023-03-23T04:08:08;101657.00;;;19.30
19644;BMP180;9970;-36.854;174.870;2023-03-23T04:17:44;101665.00;;;19.30
19644;BMP180;9970;-36.854;174.870;2023-03-23T04:20:20;101659.00;;;19.30
19644;BMP180;9970;-36.854;174.870;2023-03-23T04:26:01;101655.00;;;19.30
19644;BMP180;9970;-36.854;174.870;2023-03-23T04:31:35;101667.00;;;19.30
19644;BMP180;9970;-36.854;174.870;2023-03-23T04:34:23;101666.00;;;19.20
19644;BMP180;9970;-36.854;174.870;2023-03-23T04:40:52;101667.00;;;19.20
19644;BMP180;9970;-36.854;174.870;2023-03-23T04:43:17;101666.00;;;19.10
19644;BMP180;9970;-36.854;174.870;2023-03-23T04:46:03;101676.00;;;19.10
19644;BMP180;9970;-36.854;174.870;2023-03-23T04:49:02;101681.00;;;19.10
19644;BMP180;9970;-36.854;174.870;2023-03-23T04:51:37;101682.00;;;19.10
19644;BMP180;9970;-36.854;174.870;2023-03-23T05:00:18;101682.00;;;19.00
19644;BMP180;9970;-36.854;174.870;2023-03-23T05:03:14;101689.00;;;19.00
19644;BMP180;9970;-36.854;174.870;2023-03-23T05:09:24;101687.00;;;18.90
19644;BMP180;9970;-36.854;174.870;2023-03-23T05:15:42;101698.00;;;18.90
19644;BMP180;9970;-36.854;174.870;2023-03-23T05:21:09;101692.00;;;18.90
19644;BMP180;9970;-36.854;174.870;2023-03-23T05:23:59;101697.00;;;18.90
19644;BMP180;9970;-36.854;174.870;2023-03-23T05:29:14;101689.00;;;18.90
19644;BMP180;9970;-36.854;174.870;2023-03-23T05:31:43;101702.00;;;18.90
19644;BMP180;9970;-36.854;174.870;2023-03-23T05:34:15;101702.00;;;18.90
19644;BMP180;9970;-36.854;174.870;2023-03-23T05:36:45;101705.00;;;18.80
19644;BMP180;9970;-36.854;174.870;2023-03-23T05:39:16;101699.00;;;18.80
19644;BMP180;9970;-36.854;174.870;2023-03-23T05:41:47;101695.00;;;18.80
19644;BMP180;9970;-36.854;174.870;2023-03-23T05:44:17;101698.00;;;18.80
19644;BMP180;9970;-36.854;174.870;2023-03-23T05:46:48;101697.00;;;18.80
19644;BMP180;9970;-36.854;174.870;2023-03-23T05:49:18;101705.00;;;18.80
19644;BMP180;9970;-36.854;174.870;2023-03-23T05:51:49;101704.00;;;18.80
19644;BMP180;9970;-36.854;174.870;2023-03-23T05:54:20;101707.00;;;18.70
19644;BMP180;9970;-36.854;174.870;2023-03-23T05:56:51;101716.00;;;18.70
19644;BMP180;9970;-36.854;174.870;2023-03-23T05:59:22;101706.00;;;18.70
19644;BMP180;9970;-36.854;174.870;2023-03-23T06:01:53;101710.00;;;18.70
19644;BMP180;9970;-36.854;174.870;2023-03-23T06:04:24;101704.00;;;18.70
19644;BMP180;9970;-36.854;174.870;2023-03-23T06:06:55;101708.00;;;18.70
19644;BMP180;9970;-36.854;174.870;2023-03-23T06:09:26;101715.00;;;18.60
19644;BMP180;9970;-36.854;174.870;2023-03-23T06:11:57;101709.00;;;18.60
19644;BMP180;9970;-36.854;174.870;2023-03-23T06:14:28;101712.00;;;18.60
19644;BMP180;9970;-36.854;174.870;2023-03-23T06:17:00;101715.00;;;18.60
19644;BMP180;9970;-36.854;174.870;2023-03-23T06:19:31;101709.00;;;18.60
19644;BMP180;9970;-36.854;174.870;2023-03-23T06:22:02;101715.00;;;18.60
19644;BMP180;9970;-36.854;174.870;2023-03-23T06:24:34;101691.00;;;18.50
19644;BMP180;9970;-36.854;174.870;2023-03-23T06:27:04;101724.00;;;18.50
19644;BMP180;9970;-36.854;174.870;2023-03-23T06:29:35;101715.00;;;18.50
19644;BMP180;9970;-36.854;174.870;2023-03-23T06:32:06;101727.00;;;18.50
19644;BMP180;9970;-36.854;174.870;2023-03-23T06:34:37;101721.00;;;18.50
19644;BMP180;9970;-36.854;174.870;2023-03-23T06:37:12;101721.00;;;18.50
19644;BMP180;9970;-36.854;174.870;2023-03-23T06:39:43;101721.00;;;18.40
19644;BMP180;9970;-36.854;174.870;2023-03-23T06:42:19;101727.00;;;18.40
19644;BMP180;9970;-36.854;174.870;2023-03-23T06:44:45;101729.00;;;18.40
19644;BMP180;9970;-36.854;174.870;2023-03-23T06:47:16;101731.00;;;18.40
19644;BMP180;9970;-36.854;174.870;2023-03-23T06:49:46;101727.00;;;18.40
19644;BMP180;9970;-36.854;174.870;2023-03-23T06:52:20;101719.00;;;18.40
19644;BMP180;9970;-36.854;174.870;2023-03-23T06:54:51;101728.00;;;18.40
19644;BMP180;9970;-36.854;174.870;2023-03-23T06:57:22;101718.00;;;18.30
19644;BMP180;9970;-36.854;174.870;2023-03-23T06:59:56;101724.00;;;18.30
19644;BMP180;9970;-36.854;174.870;2023-03-23T07:02:26;101726.00;;;18.30
19644;BMP180;9970;-36.854;174.870;2023-03-23T07:05:00;101727.00;;;18.30
19644;BMP180;9970;-36.854;174.870;2023-03-23T07:07:35;101728.00;;;18.30
19644;BMP180;9970;-36.854;174.870;2023-03-23T07:10:07;101721.00;;;18.20
19644;BMP180;9970;-36.854;174.870;2023-03-23T07:12:38;101718.00;;;18.30
19644;BMP180;9970;-36.854;174.870;2023-03-23T07:15:10;101728.00;;;18.20
19644;BMP180;9970;-36.854;174.870;2023-03-23T07:17:47;101730.00;;;18.20
19644;BMP180;9970;-36.854;174.870;2023-03-23T07:20:18;101743.00;;;18.20
19644;BMP180;9970;-36.854;174.870;2023-03-23T07:22:48;101738.00;;;18.20
19644;BMP180;9970;-36.854;174.870;2023-03-23T07:25:19;101736.00;;;18.20
19644;BMP180;9970;-36.854;174.870;2023-03-23T07:27:50;101734.00;;;18.20
19644;BMP180;9970;-36.854;174.870;2023-03-23T07:30:20;101747.00;;;18.20
19644;BMP180;9970;-36.854;174.870;2023-03-23T07:32:52;101742.00;;;18.20
19644;BMP180;9970;-36.854;174.870;2023-03-23T07:35:23;101741.00;;;18.20
19644;BMP180;9970;-36.854;174.870;2023-03-23T07:37:54;101756.00;;;18.20
19644;BMP180;9970;-36.854;174.870;2023-03-23T07:40:25;101756.00;;;18.20
19644;BMP180;9970;-36.854;174.870;2023-03-23T07:42:56;101754.00;;;18.10
19644;BMP180;9970;-36.854;174.870;2023-03-23T07:45:28;101762.00;;;18.10
19644;BMP180;9970;-36.854;174.870;2023-03-23T07:47:59;101767.00;;;18.10
19644;BMP180;9970;-36.854;174.870;2023-03-23T07:50:30;101759.00;;;18.10
19644;BMP180;9970;-36.854;174.870;2023-03-23T07:53:01;101765.00;;;18.10
19644;BMP180;9970;-36.854;174.870;2023-03-23T07:55:32;101763.00;;;18.10
19644;BMP180;9970;-36.854;174.870;2023-03-23T07:58:03;101770.00;;;18.10
19644;BMP180;9970;-36.854;174.870;2023-03-23T08:00:33;101776.00;;;18.10
19644;BMP180;9970;-36.854;174.870;2023-03-23T08:03:05;101777.00;;;18.10
19644;BMP180;9970;-36.854;174.870;2023-03-23T08:05:36;101776.00;;;18.10
19644;BMP180;9970;-36.854;174.870;2023-03-23T08:08:07;101779.00;;;18.10
19644;BMP180;9970;-36.854;174.870;2023-03-23T08:10:38;101777.00;;;18.00
19644;BMP180;9970;-36.854;174.870;2023-03-23T08:13:08;101774.00;;;18.00
19644;BMP180;9970;-36.854;174.870;2023-03-23T08:15:39;101787.00;;;18.00
19644;BMP180;9970;-36.854;174.870;2023-03-23T08:18:09;101787.00;;;17.90
19644;BMP180;9970;-36.854;174.870;2023-03-23T08:20:40;101791.00;;;17.90
19644;BMP180;9970;-36.854;174.870;2023-03-23T08:23:11;101792.00;;;17.80
19644;BMP180;9970;-36.854;174.870;2023-03-23T08:25:48;101803.00;;;17.90
19644;BMP180;9970;-36.854;174.870;2023-03-23T08:28:14;101804.00;;;17.80
19644;BMP180;9970;-36.854;174.870;2023-03-23T08:30:46;101809.00;;;17.80
19644;BMP180;9970;-36.854;174.870;2023-03-23T08:33:18;101805.00;;;17.80
19644;BMP180;9970;-36.854;174.870;2023-03-23T08:35:57;101798.00;;;17.80
19644;BMP180;9970;-36.854;174.870;2023-03-23T08:38:29;101804.00;;;17.70
19644;BMP180;9970;-36.854;174.870;2023-03-23T08:41:03;101796.00;;;17.70
19644;BMP180;9970;-36.854;174.870;2023-03-23T08:43:34;101799.00;;;17.70
19644;BMP180;9970;-36.854;174.870;2023-03-23T08:46:05;101810.00;;;17.60
19644;BMP180;9970;-36.854;174.870;2023-03-23T08:48:37;101806.00;;;17.60
19644;BMP180;9970;-36.854;174.870;2023-03-23T08:51:08;101812.00;;;17.60
19644;BMP180;9970;-36.854;174.870;2023-03-23T08:53:39;101807.00;;;17.50
19644;BMP180;9970;-36.854;174.870;2023-03-23T08:56:11;101811.00;;;17.50
19644;BMP180;9970;-36.854;174.870;2023-03-23T08:58:42;101807.00;;;17.50
19644;BMP180;9970;-36.854;174.870;2023-03-23T09:01:13;101804.00;;;17.40
19644;BMP180;9970;-36.854;174.870;2023-03-23T09:03:43;101804.00;;;17.30
19644;BMP180;9970;-36.854;174.870;2023-03-23T09:06:14;101810.00;;;17.30
19644;BMP180;9970;-36.854;174.870;2023-03-23T09:08:45;101804.00;;;17.30
19644;BMP180;9970;-36.854;174.870;2023-03-23T09:11:16;101809.00;;;17.20
19644;BMP180;9970;-36.854;174.870;2023-03-23T09:13:47;101805.00;;;17.20
19644;BMP180;9970;-36.854;174.870;2023-03-23T09:16:17;101807.00;;;17.20
19644;BMP180;9970;-36.854;174.870;2023-03-23T09:18:48;101813.00;;;17.10
19644;BMP180;9970;-36.854;174.870;2023-03-23T09:21:19;101819.00;;;17.10
19644;BMP180;9970;-36.854;174.870;2023-03-23T09:23:50;101818.00;;;17.10
19644;BMP180;9970;-36.854;174.870;2023-03-23T09:26:21;101813.00;;;17.00
19644;BMP180;9970;-36.854;174.870;2023-03-23T09:28:51;101812.00;;;17.00
19644;BMP180;9970;-36.854;174.870;2023-03-23T09:31:22;101807.00;;;17.00
19644;BMP180;9970;-36.854;174.870;2023-03-23T09:33:54;101823.00;;;17.00
19644;BMP180;9970;-36.854;174.870;2023-03-23T09:36:28;101814.00;;;17.00
19644;BMP180;9970;-36.854;174.870;2023-03-23T09:38:59;101809.00;;;16.90
19644;BMP180;9970;-36.854;174.870;2023-03-23T09:47:25;101817.00;;;16.80
19644;BMP180;9970;-36.854;174.870;2023-03-23T09:49:59;101812.00;;;16.70
19644;BMP180;9970;-36.854;174.870;2023-03-23T09:52:35;101812.00;;;16.70
19644;BMP180;9970;-36.854;174.870;2023-03-23T09:55:02;101813.00;;;16.70
19644;BMP180;9970;-36.854;174.870;2023-03-23T09:57:45;101810.00;;;16.60
19644;BMP180;9970;-36.854;174.870;2023-03-23T10:00:23;101816.00;;;16.60
19644;BMP180;9970;-36.854;174.870;2023-03-23T10:05:51;101808.00;;;16.60
19644;BMP180;9970;-36.854;174.870;2023-03-23T10:08:27;101810.00;;;16.50
19644;BMP180;9970;-36.854;174.870;2023-03-23T10:14:16;101808.00;;;16.40
19644;BMP180;9970;-36.854;174.870;2023-03-23T10:16:50;101801.00;;;16.40
19644;BMP180;9970;-36.854;174.870;2023-03-23T10:19:41;101808.00;;;16.40
19644;BMP180;9970;-36.854;174.870;2023-03-23T10:22:12;101813.00;;;16.30
19644;BMP180;9970;-36.854;174.870;2023-03-23T10:24:50;101809.00;;;16.30
19644;BMP180;9970;-36.854;174.870;2023-03-23T10:30:18;101814.00;;;16.20
19644;BMP180;9970;-36.854;174.870;2023-03-23T10:32:56;101808.00;;;16.20
19644;BMP180;9970;-36.854;174.870;2023-03-23T10:35:33;101807.00;;;16.20
19644;BMP180;9970;-36.854;174.870;2023-03-23T10:38:04;101813.00;;;16.10
19644;BMP180;9970;-36.854;174.870;2023-03-23T10:40:35;101805.00;;;16.10
19644;BMP180;9970;-36.854;174.870;2023-03-23T10:43:09;101813.00;;;16.10
19644;BMP180;9970;-36.854;174.870;2023-03-23T10:45:40;101814.00;;;16.10
19644;BMP180;9970;-36.854;174.870;2023-03-23T10:48:40;101809.00;;;16.20
19644;BMP180;9970;-36.854;174.870;2023-03-23T10:50:54;101809.00;;;16.20
19644;BMP180;9970;-36.854;174.870;2023-03-23T10:53:30;101810.00;;;16.10
19644;BMP180;9970;-36.854;174.870;2023-03-23T10:55:57;101804.00;;;16.10
19644;BMP180;9970;-36.854;174.870;2023-03-23T10:58:29;101805.00;;;16.10
19644;BMP180;9970;-36.854;174.870;2023-03-23T11:01:01;101805.00;;;16.00
19644;BMP180;9970;-36.854;174.870;2023-03-23T11:03:44;101807.00;;;16.00
19644;BMP180;9970;-36.854;174.870;2023-03-23T11:06:12;101808.00;;;16.00
19644;BMP180;9970;-36.854;174.870;2023-03-23T11:09:02;101815.00;;;16.00
19644;BMP180;9970;-36.854;174.870;2023-03-23T11:11:32;101814.00;;;15.90
19644;BMP180;9970;-36.854;174.870;2023-03-23T11:14:24;101812.00;;;15.90
19644;BMP180;9970;-36.854;174.870;2023-03-23T11:16:55;101817.00;;;15.90
19644;BMP180;9970;-36.854;174.870;2023-03-23T11:19:29;101813.00;;;15.90
19644;BMP180;9970;-36.854;174.870;2023-03-23T11:22:07;101808.00;;;15.80
19644;BMP180;9970;-36.854;174.870;2023-03-23T11:24:41;101812.00;;;15.80
19644;BMP180;9970;-36.854;174.870;2023-03-23T11:27:14;101818.00;;;15.80
19644;BMP180;9970;-36.854;174.870;2023-03-23T11:30:40;101816.00;;;15.80
19644;BMP180;9970;-36.854;174.870;2023-03-23T11:32:32;101810.00;;;15.80
19644;BMP180;9970;-36.854;174.870;2023-03-23T11:35:16;101806.00;;;15.70
19644;BMP180;9970;-36.854;174.870;2023-03-23T11:37:46;101802.00;;;15.70
19644;BMP180;9970;-36.854;174.870;2023-03-23T11:40:19;101801.00;;;15.70
19644;BMP180;9970;-36.854;174.870;2023-03-23T11:42:58;101797.00;;;15.70
19644;BMP180;9970;-36.854;174.870;2023-03-23T11:45:40;101801.00;;;15.70
19644;BMP180;9970;-36.854;174.870;2023-03-23T11:51:05;101796.00;;;15.70
19644;BMP180;9970;-36.854;174.870;2023-03-23T11:54:00;101802.00;;;15.70
19644;BMP180;9970;-36.854;174.870;2023-03-23T11:56:37;101798.00;;;15.60
19644;BMP180;9970;-36.854;174.870;2023-03-23T11:59:32;101790.00;;;15.60
19644;BMP180;9970;-36.854;174.870;2023-03-23T12:04:59;101793.00;;;15.60
19644;BMP180;9970;-36.854;174.870;2023-03-23T12:07:51;101800.00;;;15.50
19644;BMP180;9970;-36.854;174.870;2023-03-23T12:10:24;101790.00;;;15.50
19644;BMP180;9970;-36.854;174.870;2023-03-23T12:13:02;101799.00;;;15.50
19644;BMP180;9970;-36.854;174.870;2023-03-23T12:18:24;101788.00;;;15.40
19644;BMP180;9970;-36.854;174.870;2023-03-23T12:21:01;101794.00;;;15.40
19644;BMP180;9970;-36.854;174.870;2023-03-23T12:23:40;101789.00;;;15.40
19644;BMP180;9970;-36.854;174.870;2023-03-23T12:26:21;101798.00;;;15.40
19644;BMP180;9970;-36.854;174.870;2023-03-23T12:31:56;101801.00;;;15.40
19644;BMP180;9970;-36.854;174.870;2023-03-23T12:34:41;101803.00;;;15.40
19644;BMP180;9970;-36.854;174.870;2023-03-23T12:37:25;101797.00;;;15.30
19644;BMP180;9970;-36.854;174.870;2023-03-23T12:40:09;101797.00;;;15.30
19644;BMP180;9970;-36.854;174.870;2023-03-23T12:45:24;101796.00;;;15.30
19644;BMP180;9970;-36.854;174.870;2023-03-23T12:48:11;101801.00;;;15.30
19644;BMP180;9970;-36.854;174.870;2023-03-23T12:50:42;101809.00;;;15.30
19644;BMP180;9970;-36.854;174.870;2023-03-23T12:53:15;101807.00;;;15.30
19644;BMP180;9970;-36.854;174.870;2023-03-23T12:55:50;101813.00;;;15.30
19644;BMP180;9970;-36.854;174.870;2023-03-23T12:58:23;101803.00;;;15.30
19644;BMP180;9970;-36.854;174.870;2023-03-23T13:00:56;101801.00;;;15.30
19644;BMP180;9970;-36.854;174.870;2023-03-23T13:06:25;101797.00;;;15.30
19644;BMP180;9970;-36.854;174.870;2023-03-23T13:08:58;101806.00;;;15.20
19644;BMP180;9970;-36.854;174.870;2023-03-23T13:11:38;101805.00;;;15.20
19644;BMP180;9970;-36.854;174.870;2023-03-23T13:14:16;101801.00;;;15.20
19644;BMP180;9970;-36.854;174.870;2023-03-23T13:16:58;101808.00;;;15.20
19644;BMP180;9970;-36.854;174.870;2023-03-23T13:20:00;101802.00;;;15.20
19644;BMP180;9970;-36.854;174.870;2023-03-23T13:24:58;101798.00;;;15.20
19644;BMP180;9970;-36.854;174.870;2023-03-23T13:27:29;101799.00;;;15.20
19644;BMP180;9970;-36.854;174.870;2023-03-23T13:29:59;101801.00;;;15.20
19644;BMP180;9970;-36.854;174.870;2023-03-23T13:32:38;101804.00;;;15.20
19644;BMP180;9970;-36.854;174.870;2023-03-23T13:35:17;101805.00;;;15.20
19644;BMP180;9970;-36.854;174.870;2023-03-23T13:37:46;101802.00;;;15.20
19644;BMP180;9970;-36.854;174.870;2023-03-23T13:40:26;101803.00;;;15.20
19644;BMP180;9970;-36.854;174.870;2023-03-23T13:42:55;101805.00;;;15.20
19644;BMP180;9970;-36.854;174.870;2023-03-23T13:45:45;101812.00;;;15.20
19644;BMP180;9970;-36.854;174.870;2023-03-23T13:48:18;101802.00;;;15.20
19644;BMP180;9970;-36.854;174.870;2023-03-23T13:50:59;101804.00;;;15.10
19644;BMP180;9970;-36.854;174.870;2023-03-23T13:53:48;101796.00;;;15.10
19644;BMP180;9970;-36.854;174.870;2023-03-23T13:56:36;101797.00;;;15.00
19644;BMP180;9970;-36.854;174.870;2023-03-23T13:59:15;101791.00;;;15.00
19644;BMP180;9970;-36.854;174.870;2023-03-23T14:01:46;101797.00;;;14.90
19644;BMP180;9970;-36.854;174.870;2023-03-23T14:04:18;101796.00;;;14.90
19644;BMP180;9970;-36.854;174.870;2023-03-23T14:06:49;101784.00;;;14.90
19644;BMP180;9970;-36.854;174.870;2023-03-23T14:11:57;101783.00;;;14.90
19644;BMP180;9970;-36.854;174.870;2023-03-23T14:14:30;101778.00;;;14.90
19644;BMP180;9970;-36.854;174.870;2023-03-23T14:17:26;101772.00;;;14.90
19644;BMP180;9970;-36.854;174.870;2023-03-23T14:19:58;101778.00;;;14.90
19644;BMP180;9970;-36.854;174.870;2023-03-23T14:22:36;101769.00;;;14.90
19644;BMP180;9970;-36.854;174.870;2023-03-23T14:25:15;101774.00;;;14.80
19644;BMP180;9970;-36.854;174.870;2023-03-23T14:27:46;101768.00;;;14.80
19644;BMP180;9970;-36.854;174.870;2023-03-23T14:30:19;101766.00;;;14.80
19644;BMP180;9970;-36.854;174.870;2023-03-23T14:32:50;101770.00;;;14.80
19644;BMP180;9970;-36.854;174.870;2023-03-23T14:35:33;101768.00;;;14.80
19644;BMP180;9970;-36.854;174.870;2023-03-23T14:37:59;101768.00;;;14.80
19644;BMP180;9970;-36.854;174.870;2023-03-23T14:40:31;101761.00;;;14.80
19644;BMP180;9970;-36.854;174.870;2023-03-23T14:43:03;101772.00;;;14.80
19644;BMP180;9970;-36.854;174.870;2023-03-23T14:45:34;101765.00;;;14.80
19644;BMP180;9970;-36.854;174.870;2023-03-23T14:48:08;101767.00;;;14.80
19644;BMP180;9970;-36.854;174.870;2023-03-23T14:50:40;101770.00;;;14.70
19644;BMP180;9970;-36.854;174.870;2023-03-23T14:53:25;101766.00;;;14.70
19644;BMP180;9970;-36.854;174.870;2023-03-23T14:55:58;101762.00;;;14.70
19644;BMP180;9970;-36.854;174.870;2023-03-23T14:58:27;101762.00;;;14.70
19644;BMP180;9970;-36.854;174.870;2023-03-23T15:01:00;101767.00;;;14.70
19644;BMP180;9970;-36.854;174.870;2023-03-23T15:03:38;101752.00;;;14.70
19644;BMP180;9970;-36.854;174.870;2023-03-23T15:06:09;101759.00;;;14.70
19644;BMP180;9970;-36.854;174.870;2023-03-23T15:08:36;101763.00;;;14.70
19644;BMP180;9970;-36.854;174.870;2023-03-23T15:11:21;101753.00;;;14.60
19644;BMP180;9970;-36.854;174.870;2023-03-23T15:13:46;101761.00;;;14.60
19644;BMP180;9970;-36.854;174.870;2023-03-23T15:16:31;101761.00;;;14.60
19644;BMP180;9970;-36.854;174.870;2023-03-23T15:21:36;101767.00;;;14.60
19644;BMP180;9970;-36.854;174.870;2023-03-23T15:24:21;101772.00;;;14.60
19644;BMP180;9970;-36.854;174.870;2023-03-23T15:26:51;101762.00;;;14.60
19644;BMP180;9970;-36.854;174.870;2023-03-23T15:29:23;101757.00;;;14.60
19644;BMP180;9970;-36.854;174.870;2023-03-23T15:31:54;101762.00;;;14.60
19644;BMP180;9970;-36.854;174.870;2023-03-23T15:34:37;101753.00;;;14.60
19644;BMP180;9970;-36.854;174.870;2023-03-23T15:37:26;101756.00;;;14.60
19644;BMP180;9970;-36.854;174.870;2023-03-23T15:39:57;101755.00;;;14.60
19644;BMP180;9970;-36.854;174.870;2023-03-23T15:42:30;101756.00;;;14.60
19644;BMP180;9970;-36.854;174.870;2023-03-23T15:47:48;101757.00;;;14.50
19644;BMP180;9970;-36.854;174.870;2023-03-23T15:52:58;101747.00;;;14.50
19644;BMP180;9970;-36.854;174.870;2023-03-23T15:55:35;101745.00;;;14.50
19644;BMP180;9970;-36.854;174.870;2023-03-23T15:58:13;101741.00;;;14.40
19644;BMP180;9970;-36.854;174.870;2023-03-23T16:00:46;101746.00;;;14.40
19644;BMP180;9970;-36.854;174.870;2023-03-23T16:03:25;101752.00;;;14.40
19644;BMP180;9970;-36.854;174.870;2023-03-23T16:06:01;101744.00;;;14.40
19644;BMP180;9970;-36.854;174.870;2023-03-23T16:08:34;101738.00;;;14.40
19644;BMP180;9970;-36.854;174.870;2023-03-23T16:11:10;101746.00;;;14.40
19644;BMP180;9970;-36.854;174.870;2023-03-23T16:13:43;101749.00;;;14.40
19644;BMP180;9970;-36.854;174.870;2023-03-23T16:16:24;101738.00;;;14.40
19644;BMP180;9970;-36.854;174.870;2023-03-23T16:18:52;101739.00;;;14.40
19644;BMP180;9970;-36.854;174.870;2023-03-23T16:21:25;101737.00;;;14.30
19644;BMP180;9970;-36.854;174.870;2023-03-23T16:23:59;101740.00;;;14.30
19644;BMP180;9970;-36.854;174.870;2023-03-23T16:26:32;101741.00;;;14.30
19644;BMP180;9970;-36.854;174.870;2023-03-23T16:29:10;101744.00;;;14.30
19644;BMP180;9970;-36.854;174.870;2023-03-23T16:31:44;101738.00;;;14.30
19644;BMP180;9970;-36.854;174.870;2023-03-23T16:34:17;101730.00;;;14.30
19644;BMP180;9970;-36.854;174.870;2023-03-23T16:36:50;101735.00;;;14.30
19644;BMP180;9970;-36.854;174.870;2023-03-23T16:39:27;101723.00;;;14.30
19644;BMP180;9970;-36.854;174.870;2023-03-23T16:42:00;101734.00;;;14.30
19644;BMP180;9970;-36.854;174.870;2023-03-23T16:44:34;101737.00;;;14.30
19644;BMP180;9970;-36.854;174.870;2023-03-23T16:47:07;101734.00;;;14.30